Time;durP1;ratioP1;P1;durP2;ratioP2;P2;SDS_P1;SDS_P2;PMS_P1;PMS_P2;Temp;Humidity;BMP_temperature;BMP_pressure;BME280_temperature;BME280_humidity;BME280_pressure;Samples;Min_cycle;Max_cycle;Signal;HPM_P1;HPM_P2
2021/09/29 00:04:52;;;;;;;23.87;21.37;;;23.90;59.20;;;;;;4737170;59;21090;-26
2021/09/29 00:09:53;;;;;;;23.85;21.35;;;23.90;59.30;;;;;;4750175;55;21062;-29
2021/09/29 00:14:54;;;;;;;23.65;21.25;;;23.90;59.30;;;;;;4743523;55;21074;-28
2021/09/29 00:19:54;;;;;;;23.52;21.02;;;23.90;59.20;;;;;;4737970;59;21143;-30
2021/09/29 00:24:55;;;;;;;23.85;21.25;;;23.90;59.20;;;;;;4773091;55;21009;-26
2021/09/29 00:30:00;;;;;;;26.98;21.35;;;23.90;59.30;;;;;;4767489;55;21030;-25
2021/09/29 00:35:02;;;;;;;22.98;20.62;;;23.90;59.20;;;;;;4737930;59;21551;-30
2021/09/29 00:40:06;;;;;;;23.00;20.70;;;23.90;59.20;;;;;;4741353;55;21010;-28
2021/09/29 00:45:08;;;;;;;23.20;20.75;;;23.90;59.20;;;;;;4761370;55;21025;-26
2021/09/29 00:50:09;;;;;;;22.65;20.17;;;23.90;59.20;;;;;;4736821;55;21002;-30
2021/09/29 00:55:13;;;;;;;23.15;20.73;;;23.90;59.20;;;;;;4762587;55;21108;-29
2021/09/29 01:00:15;;;;;;;22.13;19.75;;;23.90;59.20;;;;;;4754896;55;21029;-27
2021/09/29 01:05:16;;;;;;;22.27;19.98;;;23.90;59.10;;;;;;4754160;55;21109;-26
2021/09/29 01:10:34;;;;;;;21.77;19.35;;;23.90;59.10;;;;;;4755315;55;21005;-26
2021/09/29 01:15:47;;;;;;;22.55;20.15;;;23.90;59.10;;;;;;4747197;55;20986;-28
2021/09/29 01:21:09;;;;;;;22.33;20.02;;;23.90;59.20;;;;;;4758004;55;21058;-26
2021/09/29 01:26:16;;;;;;;21.80;19.50;;;23.90;59.20;;;;;;4750454;55;21006;-28
2021/09/29 01:31:18;;;;;;;21.75;19.50;;;23.90;59.20;;;;;;4746377;55;21010;-27
2021/09/29 01:36:21;;;;;;;21.42;19.17;;;23.90;59.10;;;;;;4774490;55;20994;-29
2021/09/29 01:41:24;;;;;;;22.08;19.77;;;23.90;59.10;;;;;;4739508;55;21070;-25
2021/09/29 01:46:27;;;;;;;22.13;19.83;;;23.90;59.10;;;;;;4776543;55;20990;-26
2021/09/29 01:51:32;;;;;;;21.48;19.23;;;23.90;59.00;;;;;;4739356;59;21033;-27
2021/09/29 01:56:37;;;;;;;22.02;19.67;;;23.90;59.10;;;;;;4738409;59;20978;-28
2021/09/29 02:01:39;;;;;;;20.27;18.23;;;23.90;59.00;;;;;;4737553;59;21042;-30
2021/09/29 02:06:51;;;;;;;20.70;18.58;;;23.90;59.00;;;;;;4750357;55;21121;-27
2021/09/29 02:11:53;;;;;;;20.73;18.52;;;23.90;59.00;;;;;;4750253;55;21140;-27
2021/09/29 02:16:56;;;;;;;21.15;18.92;;;23.90;59.00;;;;;;4747994;55;21017;-28
2021/09/29 02:21:56;;;;;;;21.00;18.80;;;23.90;59.00;;;;;;4821734;55;21002;-28
2021/09/29 02:26:57;;;;;;;20.85;18.65;;;23.90;59.00;;;;;;4791593;55;21006;-26
2021/09/29 02:31:59;;;;;;;21.35;18.85;;;23.90;59.00;;;;;;4738991;59;21524;-27
2021/09/29 02:37:00;;;;;;;20.23;18.12;;;23.90;59.00;;;;;;4784274;55;21002;-27
2021/09/29 02:42:04;;;;;;;20.08;18.08;;;23.90;59.00;;;;;;4745731;55;21042;-26
2021/09/29 02:47:05;;;;;;;19.90;17.90;;;23.90;59.00;;;;;;4780300;55;21010;-28
2021/09/29 02:52:06;;;;;;;20.08;18.05;;;23.90;59.00;;;;;;4737906;59;22219;-28
2021/09/29 02:57:07;;;;;;;19.35;17.30;;;23.90;58.90;;;;;;4748145;55;21000;-27
2021/09/29 03:02:07;;;;;;;20.02;17.90;;;23.90;58.90;;;;;;4738098;59;21074;-26
2021/09/29 03:07:08;;;;;;;20.33;18.23;;;23.90;58.90;;;;;;4738240;59;21010;-26
2021/09/29 03:12:09;;;;;;;19.27;17.27;;;23.90;58.90;;;;;;4738132;59;20998;-27
2021/09/29 03:17:10;;;;;;;20.10;18.10;;;23.90;58.90;;;;;;4770113;55;21070;-27
2021/09/29 03:22:11;;;;;;;18.73;16.83;;;23.90;58.90;;;;;;4740489;55;21010;-29
2021/09/29 03:27:12;;;;;;;19.90;17.85;;;23.90;58.90;;;;;;4738181;55;21484;-24
2021/09/29 03:32:13;;;;;;;18.95;16.95;;;23.80;58.80;;;;;;4810923;55;21057;-29
2021/09/29 03:37:13;;;;;;;20.05;17.60;;;23.90;58.90;;;;;;4738904;55;20982;-32
2021/09/29 03:42:14;;;;;;;19.33;17.33;;;23.90;58.90;;;;;;4738042;59;21010;-26
2021/09/29 03:47:15;;;;;;;19.45;17.45;;;23.90;58.90;;;;;;4737512;55;21512;-20
2021/09/29 03:52:16;;;;;;;17.60;15.90;;;23.90;58.90;;;;;;4773728;55;21797;-31
2021/09/29 03:57:17;;;;;;;18.95;17.02;;;23.90;58.90;;;;;;4738241;59;21010;-28
2021/09/29 04:02:17;;;;;;;18.48;16.52;;;23.90;58.90;;;;;;4737612;59;21062;-28
2021/09/29 04:07:18;;;;;;;18.73;16.73;;;23.80;58.90;;;;;;4738346;59;21010;-31
2021/09/29 04:12:21;;;;;;;19.20;17.17;;;23.90;59.00;;;;;;4746242;55;21126;-27
2021/09/29 04:17:22;;;;;;;18.48;16.55;;;23.90;59.00;;;;;;4752692;55;21480;-27
2021/09/29 04:22:23;;;;;;;17.60;15.85;;;23.90;58.90;;;;;;4747185;55;21006;-31
2021/09/29 04:27:24;;;;;;;18.58;16.70;;;23.90;58.90;;;;;;4779458;55;21513;-32
2021/09/29 04:32:25;;;;;;;19.30;17.20;;;23.90;59.00;;;;;;4772204;55;21073;-29
2021/09/29 04:37:26;;;;;;;19.35;17.35;;;23.90;59.00;;;;;;4748363;55;21002;-29
2021/09/29 04:42:28;;;;;;;17.83;15.98;;;23.90;59.00;;;;;;4739431;55;21042;-26
2021/09/29 04:47:29;;;;;;;17.73;15.93;;;23.90;59.00;;;;;;4785056;55;21053;-29
2021/09/29 04:52:31;;;;;;;18.98;16.58;;;23.90;59.00;;;;;;4738251;59;21009;-28
2021/09/29 04:57:32;;;;;;;17.75;15.52;;;23.80;59.00;;;;;;4737675;59;21137;-28
2021/09/29 05:02:33;;;;;;;18.20;16.40;;;23.80;59.00;;;;;;4795351;55;21535;-27
2021/09/29 05:07:34;;;;;;;17.92;16.05;;;23.90;59.10;;;;;;4745776;55;21179;-28
2021/09/29 05:12:36;;;;;;;17.40;15.60;;;23.90;59.10;;;;;;4741275;55;21002;-29
2021/09/29 05:17:36;;;;;;;18.70;16.58;;;23.80;59.00;;;;;;4758717;55;21564;-27
2021/09/29 05:22:37;;;;;;;18.12;16.12;;;23.80;59.00;;;;;;4797808;55;21131;-28
2021/09/29 05:27:38;;;;;;;18.60;16.42;;;23.90;59.00;;;;;;4746430;55;21077;-30
2021/09/29 05:32:39;;;;;;;21.00;16.67;;;23.90;59.00;;;;;;4746532;55;21069;-31
2021/09/29 05:37:40;;;;;;;17.83;15.93;;;23.80;59.10;;;;;;4747741;55;21033;-22
2021/09/29 05:42:40;;;;;;;18.80;16.73;;;23.80;59.00;;;;;;4742504;55;21050;-30
2021/09/29 05:47:41;;;;;;;18.73;16.70;;;23.80;59.00;;;;;;4747299;55;21027;-31
2021/09/29 05:52:42;;;;;;;18.15;16.27;;;23.80;59.00;;;;;;4789797;55;21029;-31
2021/09/29 05:57:43;;;;;;;18.50;16.60;;;23.80;59.00;;;;;;4756172;55;21002;-27
2021/09/29 06:02:44;;;;;;;17.83;16.02;;;23.80;59.00;;;;;;4774575;55;21107;-29
2021/09/29 06:07:44;;;;;;;18.42;15.85;;;23.80;58.90;;;;;;4750408;55;21536;-33
2021/09/29 06:12:45;;;;;;;19.33;15.88;;;23.80;58.90;;;;;;4747021;55;21111;-25
2021/09/29 06:17:59;;;;;;;18.30;16.33;;;23.80;58.90;;;;;;4748475;55;21524;-32
2021/09/29 06:23:00;;;;;;;18.35;16.35;;;23.80;58.90;;;;;;4738434;59;21599;-29
2021/09/29 06:28:01;;;;;;;16.77;15.00;;;23.80;58.90;;;;;;4776935;55;21034;-28
2021/09/29 06:33:02;;;;;;;19.67;16.15;;;23.80;58.90;;;;;;4737804;55;21280;-31
2021/09/29 06:38:05;;;;;;;18.20;16.23;;;23.80;58.90;;;;;;4738281;59;20998;-24
2021/09/29 06:43:06;;;;;;;18.02;16.12;;;23.80;58.90;;;;;;4762679;55;21567;-42
2021/09/29 06:48:10;;;;;;;18.65;16.70;;;23.80;59.00;;;;;;4737130;59;21018;-21
2021/09/29 06:53:21;;;;;;;18.58;16.25;;;23.80;58.90;;;;;;4750515;55;21536;-30
2021/09/29 06:58:22;;;;;;;19.87;16.65;;;23.80;58.90;;;;;;4775870;55;21030;-25
2021/09/29 07:03:24;;;;;;;18.23;16.20;;;23.80;58.80;;;;;;4740120;55;21062;-26
2021/09/29 07:08:25;;;;;;;19.30;16.37;;;23.80;58.90;;;;;;4808541;55;21516;-33
2021/09/29 07:13:26;;;;;;;18.80;16.65;;;23.80;58.80;;;;;;4750068;55;21014;-27
2021/09/29 07:18:29;;;;;;;20.10;16.95;;;23.90;59.10;;;;;;4737565;59;21125;-28
2021/09/29 07:23:30;;;;;;;18.17;16.17;;;23.90;59.10;;;;;;4738412;56;21968;-29
2021/09/29 07:28:31;;;;;;;19.02;17.02;;;24.00;59.10;;;;;;4786697;55;21105;-28
2021/09/29 07:33:35;;;;;;;19.60;16.62;;;24.00;59.10;;;;;;4737124;59;21033;-26
2021/09/29 07:38:36;;;;;;;18.52;16.55;;;24.10;59.30;;;;;;4753721;55;21524;-29
2021/09/29 07:43:37;;;;;;;21.12;17.73;;;24.10;59.30;;;;;;4736968;59;21057;-25
2021/09/29 07:48:38;;;;;;;20.33;18.05;;;24.10;59.10;;;;;;4749999;55;21575;-28
2021/09/29 07:53:41;;;;;;;20.27;17.65;;;24.20;59.40;;;;;;4744391;55;20998;-22
2021/09/29 07:58:42;;;;;;;23.00;18.62;;;24.20;59.40;;;;;;4748174;55;21512;-27
2021/09/29 08:03:45;;;;;;;20.05;17.95;;;24.20;59.50;;;;;;4758340;55;21191;-27
2021/09/29 08:08:45;;;;;;;24.83;18.98;;;24.30;59.50;;;;;;4751165;55;21516;-29
2021/09/29 08:13:46;;;;;;;20.83;18.62;;;24.30;59.60;;;;;;4749651;55;21021;-25
2021/09/29 08:18:47;;;;;;;22.13;19.42;;;24.30;60.20;;;;;;4747583;55;21041;-22
2021/09/29 08:23:50;;;;;;;25.60;21.45;;;24.30;59.70;;;;;;4797278;55;21065;-29
2021/09/29 08:34:18;;;;;;;64.60;48.90;;;24.30;60.20;;;;;;4737274;59;21081;-29
2021/09/29 08:39:37;;;;;;;71.85;52.78;;;24.30;60.20;;;;;;4768332;55;22024;-30
2021/09/29 08:45:03;;;;;;;121.62;96.50;;;24.30;60.50;;;;;;4740636;55;21484;-28
2021/09/29 08:50:19;;;;;;;188.25;151.45;;;24.30;60.70;;;;;;4756242;55;21002;-26
2021/09/29 09:16:18;;;;;;;84.90;67.20;;;24.50;60.50;;;;;;4736960;55;21030;-29
2021/09/29 09:21:19;;;;;;;68.30;58.83;;;24.50;60.40;;;;;;4743628;55;21932;-24
2021/09/29 09:26:25;;;;;;;72.80;58.53;;;24.50;60.30;;;;;;4753043;55;21033;-30
2021/09/29 09:31:28;;;;;;;67.47;52.80;;;24.40;60.20;;;;;;4757291;55;20994;-30
2021/09/29 09:36:35;;;;;;;63.60;51.75;;;24.50;60.00;;;;;;4744441;55;21108;-27
2021/09/29 09:41:37;;;;;;;56.78;48.40;;;24.50;59.70;;;;;;4757592;55;21003;-26
2021/09/29 09:46:38;;;;;;;60.45;47.78;;;24.50;59.60;;;;;;4767143;55;21022;-27
2021/09/29 09:51:51;;;;;;;61.58;47.88;;;24.50;59.50;;;;;;4747591;55;21070;-27
2021/09/29 09:56:56;;;;;;;67.22;49.35;;;24.60;59.40;;;;;;4764398;55;21488;-26
2021/09/29 10:01:57;;;;;;;72.05;51.55;;;24.60;59.30;;;;;;4736470;59;21110;-22
2021/09/29 10:06:58;;;;;;;70.82;49.13;;;24.60;59.10;;;;;;4758631;55;21485;-28
2021/09/29 10:24:11;;;;;;;54.20;45.28;;;24.60;58.60;;;;;;4786280;55;21161;-28
2021/09/29 10:29:14;;;;;;;59.78;43.87;;;24.20;58.80;;;;;;4746921;55;22182;-40
2021/09/29 11:12:08;;;;;;;66.20;55.63;;;23.70;59.20;;;;;;4745762;55;20064;-27
2021/09/29 11:28:32;;;;;;;59.95;49.85;;;23.70;59.30;;;;;;4737413;55;21500;-33
2021/09/29 11:33:50;;;;;;;62.05;50.22;;;23.70;59.50;;;;;;4752602;55;21663;-27
2021/09/29 12:07:56;;;;;;;57.47;50.08;;;23.60;59.50;;;;;;4736809;55;21038;-30
2021/09/29 12:13:00;;;;;;;55.67;47.15;;;23.60;59.60;;;;;;4737400;59;21556;-30
2021/09/29 12:18:10;;;;;;;54.67;46.58;;;23.60;60.00;;;;;;4758854;55;21563;-27
2021/09/29 12:23:14;;;;;;;53.90;46.28;;;23.60;60.20;;;;;;4761738;55;21090;-26
2021/09/29 12:28:35;;;;;;;52.62;45.20;;;23.60;60.30;;;;;;4737704;55;21516;-25
2021/09/29 12:34:16;;;;;;;54.13;45.40;;;23.60;60.40;;;;;;4749319;55;21555;-26
2021/09/29 12:39:20;;;;;;;50.72;44.13;;;23.60;60.50;;;;;;4769537;55;21655;-26
2021/09/29 12:44:21;;;;;;;52.85;44.25;;;23.60;60.60;;;;;;4738311;55;20986;-34
2021/09/29 12:49:22;;;;;;;50.05;44.35;;;23.70;60.70;;;;;;4742384;55;21006;-27
2021/09/29 12:54:24;;;;;;;48.78;42.65;;;23.70;60.80;;;;;;4738960;55;21464;-30
2021/09/29 12:59:25;;;;;;;52.03;44.92;;;23.70;61.00;;;;;;4737784;56;21614;-28
2021/09/29 13:04:26;;;;;;;50.65;43.60;;;23.70;61.00;;;;;;4745277;55;21026;-28
2021/09/29 13:09:27;;;;;;;49.78;44.08;;;23.70;61.10;;;;;;4788334;55;21892;-27
2021/09/29 13:14:28;;;;;;;49.40;43.87;;;23.70;61.10;;;;;;4755072;55;21001;-27
2021/09/29 13:19:39;;;;;;;49.67;43.97;;;23.70;61.30;;;;;;4750666;55;21110;-26
2021/09/29 13:38:32;;;;;;;52.38;44.72;;;23.80;61.50;;;;;;4780974;55;21037;-28
2021/09/29 13:43:33;;;;;;;49.15;43.90;;;23.80;61.60;;;;;;4742160;55;21086;-29
2021/09/29 13:48:37;;;;;;;48.80;42.90;;;23.80;61.70;;;;;;4754561;55;21045;-28
2021/09/29 13:53:38;;;;;;;46.47;41.50;;;23.80;61.60;;;;;;4750751;55;21097;-33
2021/09/29 13:58:59;;;;;;;46.03;40.92;;;23.80;61.90;;;;;;4737967;59;21673;-27
2021/09/29 14:14:57;;;;;;;44.70;39.67;;;23.80;62.10;;;;;;4737630;55;21148;-28
2021/09/29 14:30:41;;;;;;;47.33;40.83;;;23.80;62.30;;;;;;4737001;55;21142;-29
2021/09/29 14:35:42;;;;;;;45.60;40.15;;;23.80;62.30;;;;;;4742634;55;21563;-31
2021/09/29 14:40:46;;;;;;;48.08;41.65;;;23.90;62.40;;;;;;4743151;55;21010;-27
2021/09/29 14:45:47;;;;;;;45.95;40.80;;;23.90;62.40;;;;;;4762746;55;21464;-29
2021/09/29 14:50:49;;;;;;;46.72;40.15;;;23.80;62.40;;;;;;4773899;55;20986;-31
2021/09/29 14:55:50;;;;;;;45.15;40.25;;;23.80;62.50;;;;;;4765781;55;21001;-28
2021/09/29 15:00:50;;;;;;;46.65;40.63;;;23.90;62.60;;;;;;4751771;55;21014;-31
2021/09/29 15:05:53;;;;;;;44.65;38.70;;;23.90;62.60;;;;;;4775179;55;21033;-30
2021/09/29 15:10:54;;;;;;;47.00;39.60;;;23.80;63.20;;;;;;4764540;55;21508;-26
2021/09/29 15:16:07;;;;;;;44.13;39.33;;;23.80;62.60;;;;;;4738427;59;21021;-31
2021/09/29 15:50:11;;;;;;;43.97;39.28;;;23.60;62.60;;;;;;4736979;59;21077;-29
2021/09/29 15:55:42;;;;;;;44.00;39.25;;;23.60;62.60;;;;;;4760989;55;21572;-30
2021/09/29 16:16:43;;;;;;;44.17;39.42;;;23.50;62.70;;;;;;4799766;55;21030;-31
2021/09/29 16:22:07;;;;;;;43.63;38.92;;;23.50;62.60;;;;;;4739024;55;21610;-32
2021/09/29 16:32:53;;;;;;;42.90;38.25;;;23.50;62.70;;;;;;4753911;55;21037;-27
2021/09/29 16:37:55;;;;;;;41.13;36.72;;;23.50;62.70;;;;;;4738300;59;21591;-27
2021/09/29 16:42:57;;;;;;;42.90;38.30;;;23.40;62.60;;;;;;4760103;55;21489;-31
2021/09/29 16:47:58;;;;;;;43.67;38.97;;;23.40;62.70;;;;;;4748554;55;21575;-25
2021/09/29 16:53:07;;;;;;;42.83;38.30;;;23.40;62.70;;;;;;4757425;55;21014;-30
2021/09/29 16:58:13;;;;;;;43.53;38.50;;;23.40;62.60;;;;;;4787147;55;21476;-28
2021/09/29 17:03:14;;;;;;;42.97;38.40;;;23.40;62.60;;;;;;4737145;59;21993;-26
2021/09/29 17:08:15;;;;;;;43.10;38.53;;;23.40;62.60;;;;;;4757300;55;21030;-29
2021/09/29 17:13:18;;;;;;;42.70;36.78;;;23.40;62.60;;;;;;4737335;59;20978;-25
2021/09/29 17:18:18;;;;;;;42.72;38.22;;;23.40;62.70;;;;;;4745010;55;21560;-32
2021/09/29 17:23:20;;;;;;;41.17;36.90;;;23.40;62.70;;;;;;4738254;59;21009;-28
2021/09/29 17:28:21;;;;;;;41.40;36.90;;;23.40;62.60;;;;;;4737331;59;21601;-29
2021/09/29 17:33:53;;;;;;;42.83;38.22;;;23.40;62.70;;;;;;4737427;59;21018;-27
2021/09/29 17:39:17;;;;;;;42.55;37.97;;;23.40;62.80;;;;;;4738598;56;21033;-32
2021/09/29 17:54:58;;;;;;;41.90;37.55;;;23.40;62.60;;;;;;4738021;55;21065;-24
2021/09/29 17:59:59;;;;;;;39.22;34.92;;;23.40;62.60;;;;;;4742885;55;21002;-28
2021/09/29 18:05:05;;;;;;;41.17;36.78;;;23.40;62.60;;;;;;4756830;55;21528;-29
2021/09/29 18:10:11;;;;;;;39.97;35.65;;;23.30;62.50;;;;;;4750139;55;21034;-31
2021/09/29 18:15:12;;;;;;;42.10;37.65;;;23.30;62.50;;;;;;4795031;55;20997;-32
2021/09/29 18:20:14;;;;;;;40.30;35.63;;;23.30;62.50;;;;;;4755890;55;21559;-27
2021/09/29 18:25:15;;;;;;;40.33;36.03;;;23.30;62.50;;;;;;4739321;59;20994;-26
2021/09/29 18:30:17;;;;;;;43.80;37.65;;;23.30;62.40;;;;;;4759009;55;21084;-29
2021/09/29 18:35:19;;;;;;;41.35;36.88;;;23.30;62.40;;;;;;4758510;55;21480;-26
2021/09/29 18:40:20;;;;;;;40.10;36.00;;;23.30;62.40;;;;;;4758992;55;21477;-25
2021/09/29 18:45:29;;;;;;;40.35;36.15;;;23.30;62.50;;;;;;4761101;55;21029;-28
2021/09/29 18:50:33;;;;;;;39.28;34.97;;;23.30;62.40;;;;;;4751986;55;21021;-29
2021/09/29 18:55:37;;;;;;;41.22;36.83;;;23.30;62.50;;;;;;4752336;55;21025;-29
2021/09/29 19:11:19;;;;;;;37.92;34.03;;;23.30;62.40;;;;;;4745035;55;21053;-29
2021/09/29 19:16:22;;;;;;;39.80;35.55;;;23.30;62.40;;;;;;4748487;55;21042;-23
2021/09/29 19:21:23;;;;;;;39.83;35.55;;;23.30;62.40;;;;;;4747757;55;21683;-32
2021/09/29 19:26:31;;;;;;;40.35;36.08;;;23.30;62.50;;;;;;4738007;55;21053;-28
2021/09/29 19:31:32;;;;;;;38.28;34.17;;;23.30;62.40;;;;;;4758639;55;21520;-27
2021/09/29 19:36:33;;;;;;;38.15;34.15;;;23.30;62.40;;;;;;4738609;59;22051;-32
2021/09/29 19:41:34;;;;;;;38.63;34.53;;;23.30;62.40;;;;;;4738306;59;20999;-32
2021/09/29 19:46:50;;;;;;;40.12;35.72;;;23.30;62.40;;;;;;4750693;55;21026;-32
2021/09/29 20:09:07;;;;;;;39.15;35.05;;;23.30;62.30;;;;;;4737787;55;21030;-31
2021/09/29 20:14:13;;;;;;;38.60;34.60;;;23.30;62.30;;;;;;4762568;55;21624;-24
2021/09/29 20:19:15;;;;;;;38.25;33.45;;;23.30;62.30;;;;;;4754954;55;21461;-32
2021/09/29 20:24:15;;;;;;;39.03;34.83;;;23.30;62.30;;;;;;4764029;55;21515;-26
2021/09/29 20:29:16;;;;;;;36.30;32.50;;;23.20;62.30;;;;;;4771097;55;21077;-33
2021/09/29 20:44:56;;;;;;;36.42;32.28;;;23.30;62.30;;;;;;4746841;55;21729;-30
2021/09/29 20:49:56;;;;;;;36.45;32.55;;;23.20;62.30;;;;;;4737820;59;21022;-31
2021/09/29 20:54:59;;;;;;;37.03;33.03;;;23.30;62.90;;;;;;4748944;55;21069;-27
2021/09/29 21:00:00;;;;;;;38.00;33.90;;;23.20;62.30;;;;;;4773110;55;21571;-31
2021/09/29 21:05:01;;;;;;;37.58;33.60;;;23.30;62.30;;;;;;4745240;55;21142;-29
2021/09/29 21:10:05;;;;;;;36.28;32.33;;;23.30;62.30;;;;;;4737300;59;21018;-27
2021/09/29 21:15:26;;;;;;;36.08;32.13;;;23.30;62.30;;;;;;4737935;59;21014;-29
2021/09/29 21:20:31;;;;;;;37.28;33.25;;;23.20;62.20;;;;;;4764638;55;21496;-26
2021/09/29 21:25:32;;;;;;;36.15;32.38;;;23.30;62.30;;;;;;4754198;55;21516;-31
2021/09/29 21:30:39;;;;;;;36.50;32.60;;;23.30;62.30;;;;;;4737375;59;21038;-26
2021/09/29 21:35:40;;;;;;;36.95;32.95;;;23.20;62.20;;;;;;4738595;55;21480;-29
2021/09/29 22:03:25;;;;;;;35.22;31.42;;;23.30;62.10;;;;;;4737928;55;21097;-28
2021/09/29 22:14:17;;;;;;;34.92;31.23;;;23.20;62.10;;;;;;4738057;55;21090;-31
2021/09/29 22:42:05;;;;;;;33.95;30.40;;;23.20;62.10;;;;;;4743383;55;21576;-32
2021/09/29 23:08:27;;;;;;;33.78;29.95;;;23.20;62.00;;;;;;4751856;55;21037;-29
2021/09/29 23:37:04;;;;;;;32.08;28.65;;;23.20;62.00;;;;;;4738209;55;21026;-31
2021/09/29 23:42:05;;;;;;;31.30;28.00;;;23.20;62.00;;;;;;4766809;55;20986;-25
2021/09/29 23:47:06;;;;;;;32.35;28.85;;;23.20;62.00;;;;;;4747773;55;21003;-33
2021/09/29 23:52:06;;;;;;;31.80;28.52;;;23.20;62.00;;;;;;4739113;55;21006;-34
2021/09/29 23:57:07;;;;;;;30.77;27.42;;;23.20;61.90;;;;;;4762837;55;21555;-32
